Time;durP1;ratioP1;P1;durP2;ratioP2;P2;SDS_P1;SDS_P2;PMS_P1;PMS_P2;Temp;Humidity;BMP_temperature;BMP_pressure;BME280_temperature;BME280_humidity;BME280_pressure;Samples;Min_cycle;Max_cycle;Signal;HPM_P1;HPM_P2
2022/09/03 00:01:12;;;;;;;7.63;6.90;;;;;;;;;;6328064;28;20102;-66
2022/09/03 00:04:17;;;;;;;7.68;6.97;;;;;;;;;;6330043;28;20121;-68
2022/09/03 00:07:23;;;;;;;7.70;6.90;;;;;;;;;;6329645;28;20059;-69
2022/09/03 00:10:29;;;;;;;9.80;7.05;;;;;;;;;;6324922;28;20102;-66
2022/09/03 00:13:34;;;;;;;10.38;7.40;;;;;;;;;;6326792;28;20227;-66
2022/09/03 00:16:43;;;;;;;9.57;7.72;;;;;;;;;;6334957;28;20044;-66
2022/09/03 00:19:48;;;;;;;9.15;7.15;;;;;;;;;;6330937;28;20066;-66
2022/09/03 00:22:54;;;;;;;9.82;6.65;;;;;;;;;;6327047;28;20090;-67
2022/09/03 00:25:59;;;;;;;8.77;7.20;;;;;;;;;;6332234;28;20048;-66
2022/09/03 00:29:06;;;;;;;9.68;7.85;;;;;;;;;;6327868;28;20039;-66
2022/09/03 00:32:13;;;;;;;8.60;7.50;;;;;;;;;;6331010;28;20074;-65
2022/09/03 00:35:19;;;;;;;9.85;7.82;;;;;;;;;;6326649;28;20059;-67
2022/09/03 00:38:22;;;;;;;11.40;8.10;;;;;;;;;;6326544;28;20074;-66
2022/09/03 00:41:30;;;;;;;12.43;8.27;;;;;;;;;;6329964;28;20078;-67
2022/09/03 00:44:48;;;;;;;11.40;8.30;;;;;;;;;;6331863;28;20058;-66
2022/09/03 00:48:01;;;;;;;9.52;8.02;;;;;;;;;;6337614;28;20056;-67
2022/09/03 00:51:11;;;;;;;9.77;8.77;;;;;;;;;;6330211;28;20052;-66
2022/09/03 00:54:21;;;;;;;9.75;8.75;;;;;;;;;;6335144;28;20048;-67
2022/09/03 00:57:31;;;;;;;10.38;9.25;;;;;;;;;;6331923;28;20040;-66
2022/09/03 01:00:32;;;;;;;11.73;9.63;;;;;;;;;;6330938;28;20047;-67
2022/09/03 01:03:40;;;;;;;10.85;8.43;;;;;;;;;;6334986;28;20048;-66
2022/09/03 01:06:46;;;;;;;13.88;9.75;;;;;;;;;;6336106;28;20233;-69
2022/09/03 01:09:56;;;;;;;10.82;9.65;;;;;;;;;;6334461;28;20045;-66
2022/09/03 01:13:03;;;;;;;13.27;9.98;;;;;;;;;;6331829;28;20051;-65
2022/09/03 01:16:11;;;;;;;12.35;9.88;;;;;;;;;;6328525;28;20044;-66
2022/09/03 01:19:30;;;;;;;13.18;10.27;;;;;;;;;;6333347;28;20496;-67
2022/09/03 01:22:50;;;;;;;13.60;10.02;;;;;;;;;;6334039;28;20052;-66
2022/09/03 01:25:56;;;;;;;13.38;9.57;;;;;;;;;;6336993;28;20063;-67
2022/09/03 01:29:11;;;;;;;13.00;10.40;;;;;;;;;;6334795;28;20055;-66
2022/09/03 01:32:16;;;;;;;11.35;10.13;;;;;;;;;;6332522;28;20108;-68
2022/09/03 01:35:25;;;;;;;10.70;9.70;;;;;;;;;;6335013;28;20051;-70
2022/09/03 01:38:33;;;;;;;15.85;10.65;;;;;;;;;;6337238;28;20044;-67
2022/09/03 01:45:15;;;;;;;14.00;10.52;;;;;;;;;;6332386;28;20051;-67
2022/09/03 01:48:35;;;;;;;11.65;10.18;;;;;;;;;;6336503;28;20059;-67
2022/09/03 01:51:37;;;;;;;12.20;9.50;;;;;;;;;;6342712;28;20043;-67
2022/09/03 01:54:55;;;;;;;12.00;10.52;;;;;;;;;;6334318;28;20113;-67
2022/09/03 01:57:59;;;;;;;14.13;10.07;;;;;;;;;;6336725;28;20048;-67
2022/09/03 02:01:05;;;;;;;12.52;10.48;;;;;;;;;;6334453;28;20059;-67
2022/09/03 02:04:15;;;;;;;12.52;10.50;;;;;;;;;;6337255;28;20089;-67
2022/09/03 02:07:17;;;;;;;11.80;10.57;;;;;;;;;;6336607;28;20039;-68
2022/09/03 02:10:21;;;;;;;12.85;9.02;;;;;;;;;;6337790;28;20259;-67
2022/09/03 02:13:24;;;;;;;10.20;8.48;;;;;;;;;;6338796;28;20048;-67
2022/09/03 02:16:30;;;;;;;9.55;6.72;;;;;;;;;;6336979;28;20059;-67
2022/09/03 02:19:33;;;;;;;10.77;8.00;;;;;;;;;;6338057;28;20107;-69
2022/09/03 02:22:35;;;;;;;9.40;8.20;;;;;;;;;;6339515;28;20062;-67
2022/09/03 02:25:38;;;;;;;9.18;8.25;;;;;;;;;;6335381;28;20070;-67
2022/09/03 02:28:40;;;;;;;11.60;7.63;;;;;;;;;;6336840;28;20047;-67
2022/09/03 02:31:43;;;;;;;8.70;7.47;;;;;;;;;;6336582;28;20224;-67
2022/09/03 02:34:45;;;;;;;10.65;7.75;;;;;;;;;;6339929;28;20199;-68
2022/09/03 02:37:46;;;;;;;10.02;7.38;;;;;;;;;;6337200;28;20208;-68
2022/09/03 02:40:48;;;;;;;10.50;7.10;;;;;;;;;;6340752;28;20039;-68
2022/09/03 02:43:53;;;;;;;7.47;6.30;;;;;;;;;;6337907;28;20048;-68
2022/09/03 02:46:59;;;;;;;10.75;6.53;;;;;;;;;;6333766;28;20153;-68
2022/09/03 02:50:00;;;;;;;8.13;5.88;;;;;;;;;;6338904;28;20062;-68
2022/09/03 02:53:02;;;;;;;7.13;6.43;;;;;;;;;;6340620;28;20048;-67
2022/09/03 02:56:04;;;;;;;8.02;6.63;;;;;;;;;;6329889;28;20044;-67
2022/09/03 02:59:08;;;;;;;8.75;6.40;;;;;;;;;;6338320;28;20048;-67
2022/09/03 03:02:12;;;;;;;8.65;5.75;;;;;;;;;;6335910;28;20219;-68
2022/09/03 03:05:18;;;;;;;6.20;5.45;;;;;;;;;;6334379;28;20044;-68
2022/09/03 03:08:22;;;;;;;5.43;4.93;;;;;;;;;;6339176;28;20055;-67
2022/09/03 03:11:25;;;;;;;6.10;5.50;;;;;;;;;;6338691;28;20097;-68
2022/09/03 03:14:26;;;;;;;7.15;5.15;;;;;;;;;;6337568;28;20067;-67
2022/09/03 03:17:30;;;;;;;6.32;5.72;;;;;;;;;;6336147;28;20097;-67
2022/09/03 03:20:32;;;;;;;7.22;5.72;;;;;;;;;;6337163;28;20044;-68
2022/09/03 03:23:34;;;;;;;7.10;5.45;;;;;;;;;;6340172;28;20104;-68
2022/09/03 03:26:36;;;;;;;9.05;5.43;;;;;;;;;;6337750;28;20103;-70
2022/09/03 03:29:38;;;;;;;9.52;6.13;;;;;;;;;;6340842;28;20234;-68
2022/09/03 03:32:41;;;;;;;9.75;5.93;;;;;;;;;;6340507;28;20335;-66
2022/09/03 03:35:43;;;;;;;5.78;5.10;;;;;;;;;;6338025;28;20044;-66
2022/09/03 03:38:45;;;;;;;6.13;5.53;;;;;;;;;;6335053;28;20143;-67
2022/09/03 03:41:46;;;;;;;6.10;5.30;;;;;;;;;;6338009;28;20058;-66
2022/09/03 03:44:48;;;;;;;6.18;5.20;;;;;;;;;;6337114;28;20052;-68
2022/09/03 03:47:52;;;;;;;6.63;5.47;;;;;;;;;;6332699;28;20063;-68
2022/09/03 03:50:53;;;;;;;7.75;5.50;;;;;;;;;;6331354;28;20067;-67
2022/09/03 03:53:56;;;;;;;6.22;4.97;;;;;;;;;;6328157;28;20048;-67
2022/09/03 03:56:58;;;;;;;5.65;5.00;;;;;;;;;;6329045;28;20050;-68
2022/09/03 04:00:00;;;;;;;7.60;5.88;;;;;;;;;;6333663;28;20376;-66
2022/09/03 04:03:03;;;;;;;5.95;4.57;;;;;;;;;;6328899;28;20216;-67
2022/09/03 04:06:05;;;;;;;;;;;;;;;;;;6334662;28;20051;-66
2022/09/03 04:09:07;;;;;;;7.93;5.32;;;;;;;;;;6331600;28;19923;-66
2022/09/03 04:12:08;;;;;;;6.82;4.90;;;;;;;;;;6330737;28;20217;-66
2022/09/03 04:15:11;;;;;;;7.50;5.13;;;;;;;;;;6332578;28;20108;-67
2022/09/03 04:18:14;;;;;;;8.52;5.13;;;;;;;;;;6331792;28;20083;-71
2022/09/03 04:21:18;;;;;;;6.60;4.90;;;;;;;;;;6329869;28;20046;-67
2022/09/03 04:24:19;;;;;;;6.50;5.47;;;;;;;;;;6328103;28;20058;-69
2022/09/03 04:27:21;;;;;;;7.50;5.88;;;;;;;;;;6330018;28;20074;-66
2022/09/03 04:30:23;;;;;;;7.63;5.72;;;;;;;;;;6328387;28;20314;-70
2022/09/03 04:33:27;;;;;;;7.78;5.30;;;;;;;;;;6327179;28;20071;-67
2022/09/03 04:36:30;;;;;;;6.20;5.00;;;;;;;;;;6330688;28;20051;-67
2022/09/03 04:39:32;;;;;;;6.13;5.40;;;;;;;;;;6328660;28;20040;-67
2022/09/03 04:42:34;;;;;;;5.47;4.80;;;;;;;;;;6325621;28;20092;-69
2022/09/03 04:45:35;;;;;;;5.35;4.85;;;;;;;;;;6328933;28;20048;-67
2022/09/03 04:48:39;;;;;;;7.82;4.75;;;;;;;;;;6326106;28;20055;-67
2022/09/03 04:51:42;;;;;;;9.45;4.50;;;;;;;;;;6322251;28;20145;-67
2022/09/03 04:54:43;;;;;;;6.20;5.45;;;;;;;;;;6329627;28;20209;-67
2022/09/03 04:57:45;;;;;;;5.75;4.18;;;;;;;;;;6330566;28;20052;-66
2022/09/03 05:00:47;;;;;;;5.30;4.00;;;;;;;;;;6326521;28;20047;-67
2022/09/03 05:03:51;;;;;;;7.80;4.60;;;;;;;;;;6331038;28;20127;-71
2022/09/03 05:06:53;;;;;;;6.60;4.32;;;;;;;;;;6331821;28;20319;-67
2022/09/03 05:09:57;;;;;;;5.30;4.38;;;;;;;;;;6333828;28;20107;-67
2022/09/03 05:13:00;;;;;;;5.22;4.20;;;;;;;;;;6332034;28;20337;-67
2022/09/03 05:16:02;;;;;;;6.65;4.72;;;;;;;;;;6328156;28;20266;-67
2022/09/03 05:19:06;;;;;;;6.55;4.68;;;;;;;;;;6334578;28;20090;-67
2022/09/03 05:22:08;;;;;;;11.63;5.05;;;;;;;;;;6331792;28;20055;-67
2022/09/03 05:25:10;;;;;;;5.40;4.43;;;;;;;;;;6332477;28;20239;-67
2022/09/03 05:28:12;;;;;;;8.75;4.68;;;;;;;;;;6326732;28;20361;-68
2022/09/03 05:31:15;;;;;;;5.20;4.25;;;;;;;;;;6326774;28;20044;-67
2022/09/03 05:34:18;;;;;;;7.57;4.50;;;;;;;;;;6327142;28;20240;-68
2022/09/03 05:37:21;;;;;;;4.95;4.40;;;;;;;;;;6329167;28;20097;-67
2022/09/03 05:40:22;;;;;;;6.03;4.83;;;;;;;;;;6325420;28;20055;-67
2022/09/03 05:43:24;;;;;;;6.50;4.35;;;;;;;;;;6330666;28;20060;-67
2022/09/03 05:46:30;;;;;;;5.88;4.30;;;;;;;;;;6329271;28;20048;-67
2022/09/03 05:49:33;;;;;;;7.10;4.20;;;;;;;;;;6325455;28;20047;-67
2022/09/03 05:52:35;;;;;;;8.15;4.55;;;;;;;;;;6324942;28;20073;-71
2022/09/03 05:55:37;;;;;;;8.00;4.60;;;;;;;;;;6327987;28;20092;-67
2022/09/03 05:58:42;;;;;;;6.07;3.25;;;;;;;;;;6324755;28;20357;-67
2022/09/03 06:01:45;;;;;;;5.90;4.03;;;;;;;;;;6328527;28;20107;-67
2022/09/03 06:04:49;;;;;;;7.90;3.80;;;;;;;;;;6330615;28;20062;-67
2022/09/03 06:07:52;;;;;;;6.22;3.53;;;;;;;;;;6325760;28;20108;-67
2022/09/03 06:10:58;;;;;;;8.13;3.67;;;;;;;;;;6326432;28;20324;-69
2022/09/03 06:14:01;;;;;;;9.48;3.35;;;;;;;;;;6327979;28;20121;-69
2022/09/03 06:17:03;;;;;;;9.02;3.50;;;;;;;;;;6322592;28;20111;-67
2022/09/03 06:20:07;;;;;;;3.65;3.10;;;;;;;;;;6327610;28;20224;-66
2022/09/03 06:23:09;;;;;;;5.05;2.95;;;;;;;;;;6329465;28;20140;-70
2022/09/03 06:26:12;;;;;;;5.90;3.17;;;;;;;;;;6329219;28;20082;-66
2022/09/03 06:29:14;;;;;;;;;;;;;;;;;;6326493;28;20354;-66
2022/09/03 06:32:15;;;;;;;6.07;3.13;;;;;;;;;;6328760;28;19916;-67
2022/09/03 06:35:19;;;;;;;8.20;3.03;;;;;;;;;;6326579;28;20055;-68
2022/09/03 06:38:21;;;;;;;;;;;;;;;;;;6330109;28;20123;-67
2022/09/03 06:41:24;;;;;;;4.25;2.70;;;;;;;;;;6332811;28;19969;-67
2022/09/03 06:44:26;;;;;;;7.68;3.80;;;;;;;;;;6334967;28;20090;-69
2022/09/03 06:47:28;;;;;;;5.97;3.10;;;;;;;;;;6330572;28;20052;-67
2022/09/03 06:50:31;;;;;;;9.38;2.80;;;;;;;;;;6328314;28;20235;-70
2022/09/03 06:53:35;;;;;;;10.40;3.42;;;;;;;;;;6330604;28;20054;-68
2022/09/03 06:56:36;;;;;;;;;;;;;;;;;;6329744;28;20366;-67
2022/09/03 06:59:38;;;;;;;3.50;2.97;;;;;;;;;;6331342;28;20075;-68
2022/09/03 07:02:41;;;;;;;7.50;3.70;;;;;;;;;;6332898;28;20323;-67
2022/09/03 07:05:44;;;;;;;4.93;2.83;;;;;;;;;;6328863;28;20048;-68
2022/09/03 07:08:46;;;;;;;5.10;2.92;;;;;;;;;;6331373;28;20238;-68
2022/09/03 07:11:48;;;;;;;7.57;3.07;;;;;;;;;;6330750;28;20059;-67
2022/09/03 07:14:50;;;;;;;8.40;3.35;;;;;;;;;;6326722;28;20121;-65
2022/09/03 07:17:52;;;;;;;7.93;3.45;;;;;;;;;;6329644;28;20407;-65
2022/09/03 07:21:00;;;;;;;5.20;3.95;;;;;;;;;;6324757;28;20056;-68
2022/09/03 07:24:03;;;;;;;7.25;4.40;;;;;;;;;;6329784;28;20284;-68
2022/09/03 07:27:07;;;;;;;6.95;4.72;;;;;;;;;;6328234;28;20289;-66
2022/09/03 07:30:11;;;;;;;6.03;4.38;;;;;;;;;;6327194;28;20048;-66
2022/09/03 07:33:13;;;;;;;6.00;4.30;;;;;;;;;;6329145;28;20051;-67
2022/09/03 07:36:18;;;;;;;4.70;4.20;;;;;;;;;;6329085;28;20049;-69
2022/09/03 07:39:20;;;;;;;5.93;4.10;;;;;;;;;;6329537;28;20051;-67
2022/09/03 07:42:22;;;;;;;5.35;4.20;;;;;;;;;;6320579;27;20339;-67
2022/09/03 07:45:24;;;;;;;5.43;4.57;;;;;;;;;;6345698;27;20217;-67
2022/09/03 07:48:25;;;;;;;6.20;4.60;;;;;;;;;;6327154;28;20070;-67
2022/09/03 07:51:31;;;;;;;6.07;4.80;;;;;;;;;;6332437;28;20044;-66
2022/09/03 07:54:33;;;;;;;5.60;4.50;;;;;;;;;;6329323;28;20055;-68
2022/09/03 07:57:35;;;;;;;8.50;4.78;;;;;;;;;;6327596;28;20076;-65
2022/09/03 08:00:36;;;;;;;6.68;4.90;;;;;;;;;;6327947;28;20047;-66
2022/09/03 08:03:39;;;;;;;5.95;5.35;;;;;;;;;;6329403;28;20105;-66
2022/09/03 08:06:42;;;;;;;8.17;7.37;;;;;;;;;;6328610;28;20343;-67
2022/09/03 08:09:43;;;;;;;6.75;6.13;;;;;;;;;;6330571;28;21109;-66
2022/09/03 08:12:45;;;;;;;6.38;5.78;;;;;;;;;;6325883;28;20184;-70
2022/09/03 08:15:54;;;;;;;8.50;5.65;;;;;;;;;;6329827;28;20047;-69
2022/09/03 08:18:56;;;;;;;8.70;5.68;;;;;;;;;;6329035;28;20063;-68
2022/09/03 08:22:00;;;;;;;6.10;5.40;;;;;;;;;;6329148;28;20281;-67
2022/09/03 08:25:01;;;;;;;7.30;5.25;;;;;;;;;;6325119;28;20052;-69
2022/09/03 08:28:03;;;;;;;7.60;5.90;;;;;;;;;;6326878;28;20049;-70
2022/09/03 08:31:06;;;;;;;6.22;4.70;;;;;;;;;;6328866;28;20059;-67
2022/09/03 08:34:10;;;;;;;;;;;;;;;;;;6324824;28;20055;-69
2022/09/03 08:37:13;;;;;;;6.53;4.97;;;;;;;;;;6323126;28;19916;-67
2022/09/03 08:40:16;;;;;;;6.40;5.32;;;;;;;;;;6324968;28;20349;-68
2022/09/03 08:43:19;;;;;;;8.20;5.80;;;;;;;;;;6324537;28;20055;-67
2022/09/03 08:46:22;;;;;;;7.90;5.97;;;;;;;;;;6322852;28;20083;-67
2022/09/03 08:49:27;;;;;;;7.32;6.22;;;;;;;;;;6320529;28;20153;-67
2022/09/03 08:52:34;;;;;;;11.00;5.40;;;;;;;;;;6322939;28;20060;-69
2022/09/03 08:55:41;;;;;;;6.15;5.55;;;;;;;;;;6325778;28;20056;-69
2022/09/03 08:58:43;;;;;;;5.85;5.35;;;;;;;;;;6329360;28;20058;-71
2022/09/03 09:01:52;;;;;;;6.63;5.30;;;;;;;;;;6329601;28;20102;-70
2022/09/03 09:04:59;;;;;;;7.93;6.32;;;;;;;;;;6328766;28;20074;-69
2022/09/03 09:08:07;;;;;;;8.05;5.43;;;;;;;;;;6330416;28;20115;-69
2022/09/03 09:11:18;;;;;;;9.18;5.20;;;;;;;;;;6326406;28;20046;-68
2022/09/03 09:14:24;;;;;;;6.40;4.93;;;;;;;;;;6328906;28;20074;-72
2022/09/03 09:17:37;;;;;;;8.23;4.80;;;;;;;;;;6326697;28;20101;-72
2022/09/03 09:20:44;;;;;;;5.80;4.40;;;;;;;;;;6326432;28;20265;-69
2022/09/03 09:23:49;;;;;;;6.22;5.20;;;;;;;;;;6327960;28;20056;-69
2022/09/03 09:26:55;;;;;;;7.45;4.93;;;;;;;;;;6329570;28;21600;-68
2022/09/03 09:30:01;;;;;;;6.85;4.75;;;;;;;;;;6331245;28;20056;-69
2022/09/03 09:33:03;;;;;;;5.07;4.57;;;;;;;;;;6335243;28;20052;-68
2022/09/03 09:36:08;;;;;;;7.82;5.72;;;;;;;;;;6333683;28;20422;-68
2022/09/03 09:39:14;;;;;;;7.55;4.63;;;;;;;;;;6334718;28;20331;-68
2022/09/03 09:42:16;;;;;;;5.60;5.10;;;;;;;;;;6328499;28;20044;-68
2022/09/03 09:45:18;;;;;;;7.55;4.88;;;;;;;;;;6324633;28;20277;-70
2022/09/03 09:48:25;;;;;;;6.97;5.07;;;;;;;;;;6326185;28;20259;-71
2022/09/03 09:51:29;;;;;;;5.22;4.28;;;;;;;;;;6325882;28;20081;-73
2022/09/03 09:54:32;;;;;;;6.63;3.97;;;;;;;;;;6329008;28;20097;-68
2022/09/03 09:57:34;;;;;;;;;;;;;;;;;;6327460;28;20090;-69
2022/09/03 10:00:37;;;;;;;6.38;4.15;;;;;;;;;;6328184;28;19927;-70
2022/09/03 10:03:47;;;;;;;6.00;3.88;;;;;;;;;;6330132;28;20044;-69
2022/09/03 10:06:55;;;;;;;5.00;4.53;;;;;;;;;;6328210;28;20040;-68
2022/09/03 10:10:05;;;;;;;3.55;3.08;;;;;;;;;;6328569;28;20072;-69
2022/09/03 10:13:11;;;;;;;6.55;3.75;;;;;;;;;;6334821;28;20060;-69
2022/09/03 10:16:21;;;;;;;6.90;4.07;;;;;;;;;;6330123;28;20166;-70
2022/09/03 10:19:29;;;;;;;4.13;3.58;;;;;;;;;;6334579;28;20112;-70
2022/09/03 10:22:39;;;;;;;4.47;3.50;;;;;;;;;;6324863;28;20238;-70
2022/09/03 10:25:52;;;;;;;4.82;3.80;;;;;;;;;;6327069;28;20044;-70
2022/09/03 10:28:57;;;;;;;5.13;2.65;;;;;;;;;;6324632;28;20060;-68
2022/09/03 10:32:07;;;;;;;3.22;2.70;;;;;;;;;;6329305;28;20059;-67
2022/09/03 10:35:19;;;;;;;3.75;3.22;;;;;;;;;;6327631;28;20074;-68
2022/09/03 10:38:27;;;;;;;4.18;3.28;;;;;;;;;;6332065;28;20066;-71
2022/09/03 10:41:41;;;;;;;3.80;3.40;;;;;;;;;;6331771;28;20052;-70
2022/09/03 10:45:00;;;;;;;3.70;3.22;;;;;;;;;;6333063;28;20104;-71
2022/09/03 10:48:26;;;;;;;4.78;3.20;;;;;;;;;;6330369;28;20062;-69
2022/09/03 10:51:32;;;;;;;5.80;3.70;;;;;;;;;;6328229;28;20719;-72
2022/09/03 10:54:47;;;;;;;8.52;4.10;;;;;;;;;;6330908;28;20093;-70
2022/09/03 10:57:54;;;;;;;4.00;3.70;;;;;;;;;;6328730;28;20113;-70
2022/09/03 11:01:04;;;;;;;3.70;3.30;;;;;;;;;;6331153;28;20319;-68
2022/09/03 11:04:18;;;;;;;4.93;3.25;;;;;;;;;;6330857;28;20891;-67
2022/09/03 11:07:22;;;;;;;5.32;3.17;;;;;;;;;;6331334;28;20327;-67
2022/09/03 11:10:28;;;;;;;5.40;3.05;;;;;;;;;;6330981;28;20349;-66
2022/09/03 11:13:34;;;;;;;6.07;3.78;;;;;;;;;;6330631;28;20123;-67
2022/09/03 11:16:40;;;;;;;4.15;3.65;;;;;;;;;;6330934;28;20054;-67
2022/09/03 11:19:47;;;;;;;3.58;3.25;;;;;;;;;;6329447;28;20048;-66
2022/09/03 11:22:51;;;;;;;5.53;4.35;;;;;;;;;;6326478;28;20056;-70
2022/09/03 11:25:59;;;;;;;7.00;5.18;;;;;;;;;;6336166;28;20277;-70
2022/09/03 11:29:07;;;;;;;7.90;3.63;;;;;;;;;;6331566;28;20059;-73
2022/09/03 11:32:10;;;;;;;4.97;4.45;;;;;;;;;;6336690;28;20048;-69
2022/09/03 11:35:26;;;;;;;4.93;4.43;;;;;;;;;;6337253;28;20038;-71
2022/09/03 11:38:46;;;;;;;4.80;4.25;;;;;;;;;;6333841;28;20081;-70
2022/09/03 11:41:58;;;;;;;6.15;4.93;;;;;;;;;;6333965;28;20231;-69
2022/09/03 11:45:23;;;;;;;4.53;4.13;;;;;;;;;;6334541;28;20051;-67
2022/09/03 11:48:34;;;;;;;5.88;4.45;;;;;;;;;;6333141;28;20239;-67
2022/09/03 11:51:38;;;;;;;5.23;4.30;;;;;;;;;;6334034;28;20319;-66
2022/09/03 11:54:44;;;;;;;4.50;3.47;;;;;;;;;;6337097;28;20055;-67
2022/09/03 11:57:45;;;;;;;4.70;3.58;;;;;;;;;;6336267;28;20063;-67
2022/09/03 12:00:53;;;;;;;7.50;3.83;;;;;;;;;;6332212;28;20093;-66
2022/09/03 12:03:59;;;;;;;4.22;3.67;;;;;;;;;;6337554;28;20063;-67
2022/09/03 12:07:19;;;;;;;8.70;3.50;;;;;;;;;;6339460;28;20078;-67
2022/09/03 12:10:27;;;;;;;6.28;3.60;;;;;;;;;;6337539;28;20050;-66
2022/09/03 12:13:43;;;;;;;7.13;3.50;;;;;;;;;;6335493;28;20102;-67
2022/09/03 12:17:00;;;;;;;5.70;5.10;;;;;;;;;;6332574;28;20059;-66
2022/09/03 12:20:03;;;;;;;7.70;4.70;;;;;;;;;;6330767;28;20040;-67
2022/09/03 12:23:06;;;;;;;5.60;3.50;;;;;;;;;;6332706;28;20111;-70
2022/09/03 12:26:12;;;;;;;3.42;2.83;;;;;;;;;;6333263;28;20392;-66
2022/09/03 12:29:23;;;;;;;3.88;3.28;;;;;;;;;;6336820;28;20082;-66
2022/09/03 12:32:30;;;;;;;4.35;3.55;;;;;;;;;;6331660;28;20183;-66
2022/09/03 12:35:33;;;;;;;3.10;2.58;;;;;;;;;;6335377;28;20047;-68
2022/09/03 12:38:34;;;;;;;3.55;2.30;;;;;;;;;;6337963;28;20047;-67
2022/09/03 12:41:36;;;;;;;3.78;2.65;;;;;;;;;;6328938;28;20059;-67
2022/09/03 12:44:40;;;;;;;3.10;2.80;;;;;;;;;;6330284;28;20043;-67
2022/09/03 12:47:43;;;;;;;4.78;3.35;;;;;;;;;;6332454;28;20048;-67
2022/09/03 12:50:47;;;;;;;3.38;2.60;;;;;;;;;;6329285;28;20081;-66
2022/09/03 12:53:50;;;;;;;3.35;2.70;;;;;;;;;;6331654;28;20063;-66
2022/09/03 12:56:54;;;;;;;3.90;3.20;;;;;;;;;;6332632;28;20282;-67
2022/09/03 13:00:04;;;;;;;4.43;2.90;;;;;;;;;;6334661;28;20060;-66
2022/09/03 13:03:08;;;;;;;3.20;3.00;;;;;;;;;;6332698;28;20059;-66
2022/09/03 13:06:14;;;;;;;5.78;2.83;;;;;;;;;;6333332;28;20052;-67
2022/09/03 13:09:16;;;;;;;3.55;2.80;;;;;;;;;;6336739;28;20058;-66
2022/09/03 13:12:22;;;;;;;7.57;3.85;;;;;;;;;;6336664;28;20044;-67
2022/09/03 13:15:25;;;;;;;5.13;3.70;;;;;;;;;;6330250;28;20318;-67
2022/09/03 13:18:31;;;;;;;5.63;3.53;;;;;;;;;;6325759;28;20052;-68
2022/09/03 13:21:42;;;;;;;3.60;3.00;;;;;;;;;;6296154;28;20055;-69
2022/09/03 13:24:56;;;;;;;4.38;3.72;;;;;;;;;;6328888;28;20127;-69
2022/09/03 13:28:04;;;;;;;5.55;3.00;;;;;;;;;;6310090;28;20430;-68
2022/09/03 13:31:12;;;;;;;7.93;3.55;;;;;;;;;;6326126;28;20074;-69
2022/09/03 13:34:18;;;;;;;2.95;2.65;;;;;;;;;;6336164;28;20054;-68
2022/09/03 13:37:26;;;;;;;5.70;3.45;;;;;;;;;;6330594;28;20063;-68
2022/09/03 13:40:35;;;;;;;4.57;3.05;;;;;;;;;;6331145;28;20075;-69
2022/09/03 13:43:41;;;;;;;4.78;3.00;;;;;;;;;;6330610;28;20082;-68
2022/09/03 13:46:46;;;;;;;3.47;3.17;;;;;;;;;;6336020;28;20055;-69
2022/09/03 13:53:18;;;;;;;6.55;4.60;;;;;;;;;;6333145;28;20051;-68
2022/09/03 13:56:29;;;;;;;3.75;3.13;;;;;;;;;;6333203;28;20059;-67
2022/09/03 13:59:36;;;;;;;3.55;2.60;;;;;;;;;;6334974;28;20054;-67
2022/09/03 14:02:49;;;;;;;4.70;3.00;;;;;;;;;;6339012;28;20055;-67
2022/09/03 14:06:07;;;;;;;5.70;2.03;;;;;;;;;;6337525;28;20052;-70
2022/09/03 14:09:15;;;;;;;4.63;3.50;;;;;;;;;;6331908;28;20953;-66
2022/09/03 14:12:20;;;;;;;8.68;3.88;;;;;;;;;;6326188;28;20280;-68
2022/09/03 14:15:28;;;;;;;4.75;3.20;;;;;;;;;;6335254;28;20546;-68
2022/09/03 14:18:38;;;;;;;6.13;3.70;;;;;;;;;;6335601;28;20262;-68
2022/09/03 14:21:45;;;;;;;2.72;2.45;;;;;;;;;;6336490;28;20280;-67
2022/09/03 14:24:51;;;;;;;3.92;3.22;;;;;;;;;;6328970;28;20059;-68
2022/09/03 14:27:53;;;;;;;4.80;3.70;;;;;;;;;;6334352;28;20093;-68
2022/09/03 14:31:02;;;;;;;8.05;3.35;;;;;;;;;;6339013;28;20338;-69
2022/09/03 14:34:08;;;;;;;5.85;3.70;;;;;;;;;;6327323;28;20257;-69
2022/09/03 14:37:21;;;;;;;9.82;3.78;;;;;;;;;;6333710;28;20654;-69
2022/09/03 14:40:25;;;;;;;5.20;3.95;;;;;;;;;;6335622;28;20052;-69
2022/09/03 14:43:56;;;;;;;4.63;4.20;;;;;;;;;;6337120;28;20051;-73
2022/09/03 14:47:08;;;;;;;5.20;3.65;;;;;;;;;;6236679;28;20117;-71
2022/09/03 14:50:24;;;;;;;5.68;4.05;;;;;;;;;;6233257;28;20104;-69
2022/09/03 14:53:55;;;;;;;7.70;3.95;;;;;;;;;;6231528;28;20058;-69
2022/09/03 14:57:08;;;;;;;7.47;3.85;;;;;;;;;;6209892;28;20084;-70
2022/09/03 15:00:14;;;;;;;13.13;11.20;;;;;;;;;;6230543;28;20303;-70
2022/09/03 15:03:27;;;;;;;27.27;19.25;;;;;;;;;;6219851;28;20069;-69
2022/09/03 15:06:40;;;;;;;4.75;3.05;;;;;;;;;;6228173;28;20053;-71
2022/09/03 15:09:52;;;;;;;4.65;2.80;;;;;;;;;;6234811;28;20053;-70
2022/09/03 15:12:55;;;;;;;4.07;2.92;;;;;;;;;;6235746;28;20060;-71
2022/09/03 15:16:08;;;;;;;8.25;3.80;;;;;;;;;;6229971;28;20061;-70
2022/09/03 15:19:16;;;;;;;6.93;2.80;;;;;;;;;;6228056;28;20056;-70
2022/09/03 15:22:35;;;;;;;10.95;3.10;;;;;;;;;;6248408;28;20052;-70
2022/09/03 15:25:48;;;;;;;5.90;3.17;;;;;;;;;;6333040;28;20086;-70
2022/09/03 15:29:00;;;;;;;4.25;2.85;;;;;;;;;;6330428;28;20200;-70
2022/09/03 15:32:08;;;;;;;6.03;2.78;;;;;;;;;;6332534;28;20046;-71
2022/09/03 15:35:13;;;;;;;6.80;3.45;;;;;;;;;;6330658;28;20040;-70
2022/09/03 15:38:21;;;;;;;5.25;2.63;;;;;;;;;;6328565;28;20056;-70
2022/09/03 15:41:35;;;;;;;3.10;2.70;;;;;;;;;;6331003;28;20082;-70
2022/09/03 15:44:44;;;;;;;6.25;2.85;;;;;;;;;;6329916;28;20052;-70
2022/09/03 15:47:54;;;;;;;4.05;2.60;;;;;;;;;;6331888;28;20123;-72
2022/09/03 15:51:08;;;;;;;4.22;2.45;;;;;;;;;;6331042;28;20052;-70
2022/09/03 15:54:14;;;;;;;3.50;2.88;;;;;;;;;;6331035;28;20093;-71
2022/09/03 15:57:22;;;;;;;7.93;3.25;;;;;;;;;;6333121;28;20119;-72
2022/09/03 16:00:24;;;;;;;4.28;2.58;;;;;;;;;;6327899;28;20059;-71
2022/09/03 16:03:38;;;;;;;3.40;2.55;;;;;;;;;;6328860;28;20051;-71
2022/09/03 16:06:52;;;;;;;4.53;2.45;;;;;;;;;;6329285;28;20351;-70
2022/09/03 16:10:05;;;;;;;4.32;2.72;;;;;;;;;;6319025;28;20079;-71
2022/09/03 16:13:24;;;;;;;4.70;2.72;;;;;;;;;;6342866;27;20051;-71
2022/09/03 16:16:29;;;;;;;3.63;2.75;;;;;;;;;;6328870;28;20216;-71
2022/09/03 16:19:36;;;;;;;3.15;2.50;;;;;;;;;;6321595;28;20059;-74
2022/09/03 16:22:43;;;;;;;4.80;2.70;;;;;;;;;;6327697;28;20040;-71
2022/09/03 16:25:49;;;;;;;6.82;4.00;;;;;;;;;;6335794;28;20107;-71
2022/09/03 16:28:57;;;;;;;6.32;5.70;;;;;;;;;;6330388;28;20060;-70
2022/09/03 16:32:18;;;;;;;7.10;5.32;;;;;;;;;;6336408;28;20390;-70
2022/09/03 16:35:28;;;;;;;5.55;5.05;;;;;;;;;;6332564;28;20381;-70
2022/09/03 16:38:37;;;;;;;6.15;4.53;;;;;;;;;;6332625;28;20047;-70
2022/09/03 16:41:44;;;;;;;5.45;4.93;;;;;;;;;;6336705;28;20089;-71
2022/09/03 16:44:58;;;;;;;5.90;5.22;;;;;;;;;;6326923;28;20051;-70
2022/09/03 16:48:10;;;;;;;6.78;4.90;;;;;;;;;;6328304;28;20067;-70
2022/09/03 16:51:14;;;;;;;6.13;5.53;;;;;;;;;;6322879;28;20070;-70
2022/09/03 16:54:31;;;;;;;7.72;5.68;;;;;;;;;;6326942;28;20048;-70
2022/09/03 16:57:44;;;;;;;7.13;5.40;;;;;;;;;;6326764;28;20055;-72
2022/09/03 17:00:52;;;;;;;;;;;;;;;;;;6330409;28;20039;-70
2022/09/03 17:04:10;;;;;;;6.90;5.60;;;;;;;;;;6329095;28;19916;-69
2022/09/03 17:07:26;;;;;;;6.63;5.22;;;;;;;;;;6330167;28;20040;-70
2022/09/03 17:10:33;;;;;;;6.32;5.72;;;;;;;;;;6335511;28;20067;-69
2022/09/03 17:13:57;;;;;;;5.72;5.18;;;;;;;;;;6334826;28;20055;-70
2022/09/03 17:17:05;;;;;;;7.75;5.38;;;;;;;;;;6335283;28;20047;-68
2022/09/03 17:20:12;;;;;;;5.22;4.32;;;;;;;;;;6332744;28;20052;-69
2022/09/03 17:23:29;;;;;;;7.70;4.97;;;;;;;;;;6330982;28;20052;-69
2022/09/03 17:26:34;;;;;;;5.60;4.28;;;;;;;;;;6330726;28;20044;-69
2022/09/03 17:29:50;;;;;;;5.80;5.30;;;;;;;;;;6332618;28;20328;-69
2022/09/03 17:33:31;;;;;;;7.72;5.10;;;;;;;;;;6336438;28;20055;-72
2022/09/03 17:36:37;;;;;;;6.13;5.53;;;;;;;;;;6333325;28;20048;-69
2022/09/03 17:39:56;;;;;;;7.85;6.18;;;;;;;;;;6333015;28;20058;-69
2022/09/03 17:43:05;;;;;;;6.22;5.63;;;;;;;;;;6333292;28;20093;-75
2022/09/03 17:46:14;;;;;;;6.15;5.53;;;;;;;;;;6337402;28;20117;-68
2022/09/03 17:49:21;;;;;;;9.30;5.63;;;;;;;;;;6334493;28;20047;-68
2022/09/03 17:52:31;;;;;;;7.18;5.32;;;;;;;;;;6337021;28;20172;-69
2022/09/03 17:55:35;;;;;;;6.22;5.40;;;;;;;;;;6329765;28;20107;-67
2022/09/03 17:58:39;;;;;;;9.43;6.05;;;;;;;;;;6335199;28;20071;-73
2022/09/03 18:01:49;;;;;;;6.85;5.10;;;;;;;;;;6339405;28;20327;-67
2022/09/03 18:04:54;;;;;;;7.80;5.70;;;;;;;;;;6333856;28;20056;-70
2022/09/03 18:08:03;;;;;;;10.57;6.05;;;;;;;;;;6335508;28;20094;-68
2022/09/03 18:11:09;;;;;;;12.07;6.13;;;;;;;;;;6331290;28;20066;-68
2022/09/03 18:14:17;;;;;;;10.15;6.32;;;;;;;;;;6333866;28;20058;-70
2022/09/03 18:17:27;;;;;;;7.63;5.60;;;;;;;;;;6332232;28;20052;-68
2022/09/03 20:13:24;;;;;;;4.28;2.97;;;;;;;;;;6334479;28;20081;-69
2022/09/03 20:16:29;;;;;;;6.45;3.50;;;;;;;;;;6331398;28;20040;-66
2022/09/03 20:19:40;;;;;;;3.30;2.80;;;;;;;;;;6326467;28;20090;-67
2022/09/03 20:22:51;;;;;;;5.40;3.30;;;;;;;;;;6330964;28;20040;-67
2022/09/03 20:26:12;;;;;;;6.43;2.67;;;;;;;;;;6329225;28;20055;-67
2022/09/03 20:29:30;;;;;;;4.25;3.22;;;;;;;;;;6332240;28;20060;-67
2022/09/03 20:33:07;;;;;;;3.75;2.67;;;;;;;;;;6335014;28;20082;-68
2022/09/03 20:36:19;;;;;;;3.65;3.20;;;;;;;;;;6320875;28;20048;-66
2022/09/03 20:39:30;;;;;;;5.07;2.90;;;;;;;;;;6332486;28;20112;-68